Terminal Aerodrome Forecast
Issued by NWS Central Illinois

Current Version | Previous Version | Text Only | Print | Product List | Glossary On
Versions: 1 2 3 4 5 6 7 8 9 10 11 12 13 14 15 16 17 18 19
000
FTUS43 KILX 250606 AAB
TAFPIA
TAF AMD
KPIA 250606Z 2506/2606 18008KT P6SM -RA VCTS SCT035CB BKN100
      TEMPO 2506/2507 3SM -TSRA BR BKN035CB
     FM251000 VRB03KT 4SM SHRA BR SCT010 OVC025
     FM251200 24004KT 4SM BR SCT006 OVC012
     FM251800 28005KT P6SM BKN050
     FM260000 32004KT P6SM SCT100 OVC250=

USA.gov is the U.S. government's official web portal to all federal, state and local government web resources and services.